Tropical Cyclones
[Index]
Main Index Home Page Stock Weather Photos Extreme Storms Discussion Storm News and Storm Chasing Reports Tropical Cyclones / Hurricanes / Typhoons Weather Data and Links Wild Fires / Bushfires Weather Observation Techniques Weather Picture Catalogue Tornado Pictures and Reports Stock Video Footage and DVDs for sale
Season 2001-2002 Tropical Cyclone BERNIE Track Map
Season 2001-2002 Summaries (Operational Data): [AU] [SIO] [SPAC] [SH]
<<- Previous TC | 2001-2002 Season | Next TC ->>

click for intensity scale information  Lat/long Grid: Show Hide

 Date Labels: Show Hide

Operational Tropical Cyclone Data : JTWC Advisories

Name: BERNIE
Number: 0209

30 Dec 2001 21:00 UTC to 06 Jan 2002 06:00 UTC

    date/time    lat    long     hPa   cat  kts
2001-12-30 21   11.5   137.5    1006                     
2001-12-31 00   11.7   137.5    1007                     
2001-12-31 06   12.1   137.8    1004                     
2001-12-31 12   12.2   137.9    1005                     
2001-12-31 18   12.5   137.9    1003                     
2001-12-31 22   12.6   137.9    1003         30          
2002-01-01 07   13.3   138.0    1001         30          
2002-01-01 13   13.5   137.8    1001         30          
2002-01-01 19   14.0   138.8    1001         30          
2002-01-01 21   14.0   139.0    1001         30          
2002-01-02 00   14.2   139.4    1001         30          
2002-01-02 06   14.7   139.3     999         30          
2002-01-02 12   15.0   138.8     999         30          
2002-01-02 18   15.0   138.8     999         30          
2002-01-02 21   14.6   138.8     997         30          
2002-01-03 00   14.6   138.8     997         30          
2002-01-03 06   15.0   138.9     992    1    35          
2002-01-03 12   15.2   138.9     987    1    45          
2002-01-03 18   15.5   139.0     985    2    50          
2002-01-04 00   15.6   139.0     985    2    50          
2002-01-04 06   16.2   139.0     985    2    50          
2002-01-04 12   16.9   138.7     990    1    40          
2002-01-04 18   17.0   138.0     996         25          
2002-01-05 00   16.7   138.4     996                     
2002-01-05 06   17.1   138.3     998                     
2002-01-05 12   17.4   138.0    1001                     
2002-01-05 18   17.9   137.7    1001                     
2002-01-06 00   18.5   137.5    1003                     
2002-01-06 06   18.8   137.4    1001                     
Winds are 10-min average.

Tropical cyclone tracks developed by Michael Bath using operational warnings and advisories and Google Maps.


[Australian Severe Weather index] [Copyright Notice] [Email Contacts] [Search This Site] [Privacy Policy]
Document: tropical_cyclone_bernie.htm Updated: 28 May 2013